createdAt,value
2023-01-25T00:01:22.959Z,-2.34
2023-01-25T00:03:51.312Z,-2.37
2023-01-25T00:06:19.993Z,-2.39
2023-01-25T00:08:51.653Z,-2.40
2023-01-25T00:11:20.952Z,-2.39
2023-01-25T00:13:49.638Z,-2.39
2023-01-25T00:16:17.931Z,-2.36
2023-01-25T00:18:46.063Z,-2.34
2023-01-25T00:21:19.291Z,-2.33
2023-01-25T00:23:47.572Z,-2.34
2023-01-25T00:26:16.284Z,-2.34
2023-01-25T00:28:51.792Z,-2.34
2023-01-25T00:31:55.540Z,-2.35
2023-01-25T00:34:27.338Z,-2.34
2023-01-25T00:37:03.527Z,-2.35
2023-01-25T00:39:31.909Z,-2.38
2023-01-25T00:42:00.305Z,-2.39
2023-01-25T00:44:28.942Z,-2.39
2023-01-25T00:46:57.747Z,-2.39
2023-01-25T00:49:27.174Z,-2.40
2023-01-25T00:51:58.114Z,-2.40
2023-01-25T00:54:26.597Z,-2.42
2023-01-25T00:56:56.698Z,-2.43
2023-01-25T00:59:25.285Z,-2.44
2023-01-25T01:01:54.412Z,-2.45
2023-01-25T01:04:26.243Z,-2.47
2023-01-25T01:06:54.749Z,-2.59
2023-01-25T01:09:23.636Z,-2.68
2023-01-25T01:11:53.509Z,-2.74
2023-01-25T01:14:22.351Z,-2.78
2023-01-25T01:16:55.893Z,-2.77
2023-01-25T01:19:25.553Z,-2.73
2023-01-25T01:21:54.054Z,-2.70
2023-01-25T01:24:23.818Z,-2.70
2023-01-25T01:26:52.232Z,-2.73
2023-01-25T01:29:20.409Z,-2.77
2023-01-25T01:31:52.801Z,-2.76
2023-01-25T01:34:24.742Z,-2.73
2023-01-25T01:36:53.568Z,-2.70
2023-01-25T01:39:21.988Z,-2.68
2023-01-25T01:41:50.429Z,-2.66
2023-01-25T01:44:20.725Z,-2.64
2023-01-25T01:46:55.321Z,-2.63
2023-01-25T01:49:29.677Z,-2.65
2023-01-25T01:52:10.035Z,-2.68
2023-01-25T01:54:49.585Z,-2.71
2023-01-25T01:57:31.687Z,-2.73
2023-01-25T02:00:14.166Z,-2.76
2023-01-25T02:02:42.951Z,-2.79
2023-01-25T02:05:22.012Z,-2.79
2023-01-25T02:07:52.053Z,-2.81
2023-01-25T02:10:21.228Z,-2.87
2023-01-25T02:12:50.424Z,-2.91
2023-01-25T02:15:18.601Z,-2.89
2023-01-25T02:17:46.988Z,-2.86
2023-01-25T02:20:19.399Z,-2.87
2023-01-25T02:22:53.673Z,-2.88
2023-01-25T02:25:21.959Z,-2.87
2023-01-25T02:27:55.560Z,-2.87
2023-01-25T02:30:25.068Z,-2.94
2023-01-25T02:32:53.443Z,-3.00
2023-01-25T02:35:23.681Z,-3.04
2023-01-25T02:37:52.054Z,-3.07
2023-01-25T02:40:20.371Z,-3.07
2023-01-25T02:42:48.810Z,-3.06
2023-01-25T02:45:18.006Z,-3.03
2023-01-25T02:47:48.845Z,-2.99
2023-01-25T02:50:17.262Z,-2.93
2023-01-25T02:52:45.619Z,-2.90
2023-01-25T02:55:13.988Z,-2.88
2023-01-25T02:57:43.394Z,-2.86
2023-01-25T03:00:12.567Z,-2.83
2023-01-25T03:02:40.783Z,-2.81
2023-01-25T03:05:10.250Z,-2.79
2023-01-25T03:07:39.795Z,-2.78
2023-01-25T03:10:10.549Z,-2.80
2023-01-25T03:12:38.902Z,-2.85
2023-01-25T03:15:08.728Z,-2.90
2023-01-25T03:17:37.713Z,-2.94
2023-01-25T03:20:06.972Z,-2.99
2023-01-25T03:22:35.393Z,-3.03
2023-01-25T03:25:03.875Z,-3.08
2023-01-25T03:27:32.256Z,-3.13
2023-01-25T03:30:11.502Z,-3.16
2023-01-25T03:32:39.771Z,-3.16
2023-01-25T03:35:11.017Z,-3.17
2023-01-25T03:37:39.834Z,-3.19
2023-01-25T03:40:09.273Z,-3.23
2023-01-25T03:42:37.998Z,-3.23
2023-01-25T03:45:07.334Z,-3.20
2023-01-25T03:47:36.347Z,-3.18
2023-01-25T03:50:07.809Z,-3.16
2023-01-25T03:52:45.657Z,-3.11
2023-01-25T03:55:13.938Z,-3.09
2023-01-25T03:57:43.336Z,-3.09
2023-01-25T04:00:13.027Z,-3.11
2023-01-25T04:02:46.954Z,-3.14
2023-01-25T04:05:17.895Z,-3.17
2023-01-25T04:07:46.587Z,-3.18
2023-01-25T04:10:15.986Z,-3.19
2023-01-25T04:12:47.746Z,-3.19
2023-01-25T04:15:16.693Z,-3.19
2023-01-25T04:17:44.877Z,-3.20
2023-01-25T04:20:19.032Z,-3.26
2023-01-25T04:22:47.391Z,-3.32
2023-01-25T04:25:16.286Z,-3.34
2023-01-25T04:27:50.447Z,-3.34
2023-01-25T04:30:18.905Z,-3.33
2023-01-25T04:32:47.615Z,-3.34
2023-01-25T04:35:32.051Z,-3.37
2023-01-25T04:38:00.900Z,-3.40
2023-01-25T04:40:35.875Z,-3.43
2023-01-25T04:43:04.768Z,-3.43
2023-01-25T04:45:33.376Z,-3.42
2023-01-25T04:48:04.907Z,-3.40
2023-01-25T04:50:34.837Z,-3.39
2023-01-25T04:53:04.091Z,-3.39
2023-01-25T04:55:34.168Z,-3.41
2023-01-25T04:58:02.789Z,-3.41
2023-01-25T05:00:32.663Z,-3.43
2023-01-25T05:03:01.579Z,-3.47
2023-01-25T05:05:30.436Z,-3.47
2023-01-25T05:08:00.040Z,-3.42
2023-01-25T05:10:28.354Z,-3.38
2023-01-25T05:13:22.991Z,-3.33
2023-01-25T05:15:57.776Z,-3.29
2023-01-25T05:18:29.079Z,-3.23
2023-01-25T05:20:59.329Z,-3.17
2023-01-25T05:23:28.624Z,-3.12
2023-01-25T05:26:15.652Z,-3.10
2023-01-25T05:28:44.252Z,-3.10
2023-01-25T05:31:38.862Z,-3.09
2023-01-25T05:34:07.199Z,-3.11
2023-01-25T05:36:35.495Z,-3.10
2023-01-25T05:39:09.387Z,-3.10
2023-01-25T05:41:37.877Z,-3.09
2023-01-25T05:44:06.258Z,-3.09
2023-01-25T05:46:37.063Z,-3.11
2023-01-25T05:49:05.578Z,-3.13
2023-01-25T05:51:35.814Z,-3.14
2023-01-25T05:54:05.918Z,-3.15
2023-01-25T05:56:35.432Z,-3.15
2023-01-25T05:59:03.701Z,-3.20
2023-01-25T06:01:31.786Z,-3.24
2023-01-25T06:04:00.874Z,-3.24
2023-01-25T06:06:29.877Z,-3.24
2023-01-25T06:08:58.233Z,-3.25
2023-01-25T06:11:27.137Z,-3.24
2023-01-25T06:13:56.818Z,-3.23
2023-01-25T06:16:25.040Z,-3.30
2023-01-25T06:18:56.179Z,-3.36
2023-01-25T06:21:47.706Z,-3.39
2023-01-25T06:24:16.036Z,-3.39
2023-01-25T06:26:44.970Z,-3.38
2023-01-25T06:29:13.555Z,-3.35
2023-01-25T06:31:41.861Z,-3.31
2023-01-25T06:34:10.932Z,-3.28
2023-01-25T06:36:39.309Z,-3.26
2023-01-25T06:39:07.598Z,-3.25
2023-01-25T06:41:37.573Z,-3.24
2023-01-25T06:44:05.803Z,-3.21
2023-01-25T06:46:35.942Z,-3.19
2023-01-25T06:49:04.610Z,-3.15
2023-01-25T06:51:33.107Z,-3.11
2023-01-25T06:54:02.660Z,-3.09
2023-01-25T06:56:33.050Z,-3.07
2023-01-25T06:59:01.611Z,-3.05
2023-01-25T07:01:30.816Z,-3.04
2023-01-25T07:04:02.349Z,-3.05
2023-01-25T07:06:33.554Z,-3.06
2023-01-25T07:09:04.313Z,-3.07
2023-01-25T07:11:32.843Z,-3.05
2023-01-25T07:14:01.282Z,-3.03
2023-01-25T07:16:36.616Z,-3.03
2023-01-25T07:19:05.881Z,-3.05
2023-01-25T07:21:34.242Z,-3.05
2023-01-25T07:24:03.861Z,-3.06
2023-01-25T07:26:32.374Z,-3.04
2023-01-25T07:29:00.837Z,-3.02
2023-01-25T07:31:30.262Z,-3.00
2023-01-25T07:33:58.821Z,-3.00
2023-01-25T07:36:27.067Z,-3.02
2023-01-25T07:38:56.403Z,-3.02
2023-01-25T07:41:25.159Z,-3.00
2023-01-25T07:47:15.677Z,-2.99
2023-01-25T07:49:43.822Z,-2.97
2023-01-25T07:52:14.797Z,-3.00
2023-01-25T07:54:48.378Z,-2.99
2023-01-25T07:57:17.600Z,-2.95
2023-01-25T07:59:47.614Z,-2.92
2023-01-25T08:02:16.408Z,-2.91
2023-01-25T08:04:45.673Z,-2.93
2023-01-25T08:07:14.417Z,-2.99
2023-01-25T08:09:48.000Z,-3.07
2023-01-25T08:12:17.715Z,-3.12
2023-01-25T08:14:46.090Z,-3.14
2023-01-25T08:17:14.778Z,-3.08
2023-01-25T08:20:08.459Z,-3.03
2023-01-25T08:22:37.251Z,-2.97
2023-01-25T08:25:06.850Z,-2.90
2023-01-25T08:27:38.310Z,-2.86
2023-01-25T08:30:07.826Z,-2.86
2023-01-25T08:32:39.263Z,-2.87
2023-01-25T08:35:10.891Z,-2.91
2023-01-25T08:37:39.403Z,-2.93
2023-01-25T08:40:08.989Z,-2.95
2023-01-25T08:42:43.354Z,-2.97
2023-01-25T08:45:11.853Z,-3.02
2023-01-25T08:47:40.198Z,-3.07
2023-01-25T08:50:13.806Z,-3.10
2023-01-25T08:52:42.287Z,-3.15
2023-01-25T08:55:10.763Z,-3.18
2023-01-25T08:57:39.252Z,-3.18
2023-01-25T09:00:09.028Z,-3.18
2023-01-25T09:02:37.812Z,-3.20
2023-01-25T09:05:07.546Z,-3.21
2023-01-25T09:07:38.827Z,-3.23
2023-01-25T09:10:09.420Z,-3.21
2023-01-25T09:12:41.220Z,-3.22
2023-01-25T09:15:10.527Z,-3.27
2023-01-25T09:17:39.617Z,-3.27
2023-01-25T09:20:09.440Z,-3.22
2023-01-25T09:22:37.906Z,-3.23
2023-01-25T09:25:06.709Z,-3.25
2023-01-25T09:27:35.079Z,-3.24
2023-01-25T09:31:10.739Z,-3.18
2023-01-25T09:34:05.137Z,-3.06
2023-01-25T09:36:33.809Z,-3.01
2023-01-25T09:39:02.085Z,-3.08
2023-01-25T09:41:49.825Z,-3.11
2023-01-25T09:44:37.149Z,-3.10
2023-01-25T09:47:12.418Z,-3.05
2023-01-25T09:49:59.634Z,-3.00
2023-01-25T09:52:46.931Z,-2.99
2023-01-25T09:55:16.074Z,-2.97
2023-01-25T09:57:45.593Z,-2.96
2023-01-25T10:00:19.664Z,-2.93
2023-01-25T10:03:08.526Z,-2.91
2023-01-25T10:05:42.973Z,-2.93
2023-01-25T10:08:44.904Z,-2.96
2023-01-25T10:11:39.501Z,-3.07
2023-01-25T10:14:13.717Z,-3.18
2023-01-25T10:16:44.177Z,-3.26
2023-01-25T10:19:23.006Z,-3.30
2023-01-25T10:21:56.701Z,-3.26
2023-01-25T10:24:55.882Z,-3.24
2023-01-25T10:27:57.854Z,-3.21
2023-01-25T10:30:30.860Z,-3.22
2023-01-25T10:33:01.425Z,-3.24
2023-01-25T10:35:40.287Z,-3.26
2023-01-25T10:38:25.778Z,-3.24
2023-01-25T10:41:03.165Z,-3.26
2023-01-25T10:43:31.758Z,-3.29
2023-01-25T10:46:00.008Z,-3.29
2023-01-25T10:48:34.368Z,-3.25
2023-01-25T10:51:02.738Z,-3.18
2023-01-25T10:53:34.703Z,-3.16
2023-01-25T10:56:12.139Z,-3.18
2023-01-25T10:58:46.525Z,-3.24
2023-01-25T11:01:31.968Z,-3.27
2023-01-25T11:04:01.597Z,-3.31
2023-01-25T11:06:38.282Z,-3.35
2023-01-25T11:09:29.834Z,-3.38
2023-01-25T11:12:03.607Z,-3.36
2023-01-25T11:14:32.536Z,-3.35
2023-01-25T11:17:03.749Z,-3.35
2023-01-25T11:19:32.043Z,-3.37
2023-01-25T11:22:02.562Z,-3.38
2023-01-25T11:24:35.083Z,-3.38
2023-01-25T11:27:32.881Z,-3.36
2023-01-25T11:30:19.413Z,-3.33
2023-01-25T11:32:47.454Z,-3.34
2023-01-25T11:35:21.234Z,-3.33
2023-01-25T11:38:17.327Z,-3.34
2023-01-25T11:40:48.069Z,-3.33
2023-01-25T11:43:32.120Z,-3.34
2023-01-25T11:46:13.212Z,-3.35
2023-01-25T11:49:05.839Z,-3.33
2023-01-25T11:52:13.348Z,-3.30
2023-01-25T11:54:57.074Z,-3.28
2023-01-25T11:57:43.330Z,-3.27
2023-01-25T12:00:20.467Z,-3.26
2023-01-25T12:03:24.447Z,-3.25
2023-01-25T12:06:25.314Z,-3.31
2023-01-25T12:08:58.018Z,-3.31
2023-01-25T12:11:35.278Z,-3.31
2023-01-25T12:14:26.618Z,-3.27
2023-01-25T12:16:57.616Z,-3.22
2023-01-25T12:19:35.200Z,-3.18
2023-01-25T12:22:18.777Z,-3.15
2023-01-25T12:25:22.911Z,-3.14
2023-01-25T12:28:29.698Z,-3.21
2023-01-25T12:31:14.924Z,-3.32
2023-01-25T12:33:52.861Z,-3.38
2023-01-25T12:36:44.065Z,-3.42
2023-01-25T12:39:30.905Z,-3.47
2023-01-25T12:42:05.014Z,-3.55
2023-01-25T12:44:39.084Z,-3.57
2023-01-25T12:47:45.496Z,-3.60
2023-01-25T12:50:49.369Z,-3.62
2023-01-25T12:53:23.729Z,-3.63
2023-01-25T12:55:52.324Z,-3.61
2023-01-25T12:58:44.045Z,-3.61
2023-01-25T13:01:26.994Z,-3.66
2023-01-25T13:04:28.208Z,-3.71
2023-01-25T13:07:54.603Z,-3.70
2023-01-25T13:10:29.586Z,-3.65
2023-01-25T13:13:05.244Z,-3.58
2023-01-25T13:15:43.554Z,-3.51
2023-01-25T13:18:28.547Z,-3.46
2023-01-25T13:21:00.731Z,-3.44
2023-01-25T16:26:22.859Z,-3.84
2023-01-25T16:28:53.159Z,-3.70
2023-01-25T16:31:31.987Z,-3.79
2023-01-25T16:34:00.602Z,-3.80
2023-01-25T16:36:27.684Z,-3.78
2023-01-25T16:38:54.643Z,-3.75
2023-01-25T16:41:21.438Z,-3.75
2023-01-25T16:43:48.426Z,-3.76
2023-01-25T16:46:16.977Z,-3.78
2023-01-25T16:48:44.584Z,-3.80
2023-01-25T16:51:22.274Z,-3.85
2023-01-25T16:53:55.155Z,-3.89
2023-01-25T16:56:23.637Z,-3.93
2023-01-25T16:58:50.814Z,-3.96
2023-01-25T17:01:18.636Z,-3.96
2023-01-25T17:03:45.911Z,-3.96
2023-01-25T17:06:24.684Z,-3.97
2023-01-25T17:09:00.325Z,-3.98
2023-01-25T17:11:28.678Z,-3.95
2023-01-25T17:13:56.942Z,-3.90
2023-01-25T17:16:25.337Z,-3.86
2023-01-25T17:18:55.851Z,-3.84
2023-01-25T17:21:22.797Z,-3.87
2023-01-25T17:23:49.678Z,-3.90
2023-01-25T17:26:17.534Z,-3.91
2023-01-25T17:28:44.765Z,-3.90
2023-01-25T17:31:16.156Z,-3.86
2023-01-25T17:33:43.542Z,-3.83
2023-01-25T17:36:10.510Z,-3.82
2023-01-25T17:38:40.365Z,-3.81
2023-01-25T17:41:08.364Z,-3.80
2023-01-25T17:43:35.354Z,-3.84
2023-01-25T17:46:25.602Z,-3.90
2023-01-25T17:48:52.595Z,-3.92
2023-01-25T17:51:24.660Z,-3.93
2023-01-25T17:53:52.532Z,-3.90
2023-01-25T17:56:19.803Z,-3.85
2023-01-25T17:58:46.829Z,-3.80
2023-01-25T18:01:19.043Z,-3.76
2023-01-25T18:03:46.467Z,-3.73
2023-01-25T18:06:19.359Z,-3.70
2023-01-25T18:08:48.217Z,-3.68
2023-01-25T18:11:16.971Z,-3.64
2023-01-25T18:13:49.029Z,-3.65
2023-01-25T18:16:16.854Z,-3.77
2023-01-25T18:18:44.222Z,-3.89
2023-01-25T18:21:13.046Z,-3.93
2023-01-25T18:23:40.900Z,-3.90
2023-01-25T18:26:16.024Z,-3.86
2023-01-25T18:28:43.525Z,-3.82
2023-01-25T18:31:10.386Z,-3.78
2023-01-25T18:33:37.884Z,-3.75
2023-01-25T18:36:05.474Z,-3.72
2023-01-25T18:38:34.773Z,-3.70
2023-01-25T18:41:01.499Z,-3.66
2023-01-25T18:43:28.460Z,-3.64
2023-01-25T18:45:56.021Z,-3.65
2023-01-25T18:48:30.162Z,-3.66
2023-01-25T18:51:09.275Z,-3.65
2023-01-25T18:53:37.369Z,-3.65
2023-01-25T18:56:09.259Z,-3.67
2023-01-25T18:58:42.609Z,-3.69
2023-01-25T19:01:17.748Z,-3.72
2023-01-25T19:03:45.268Z,-3.72
2023-01-25T19:06:14.196Z,-3.71
2023-01-25T19:08:43.577Z,-3.73
2023-01-25T19:11:14.614Z,-3.75
2023-01-25T19:13:41.978Z,-3.76
2023-01-25T19:16:13.373Z,-3.77
2023-01-25T19:18:45.762Z,-3.75
2023-01-25T19:21:13.874Z,-3.74
2023-01-25T19:23:40.663Z,-3.73
2023-01-25T19:26:08.295Z,-3.76
2023-01-25T19:28:35.400Z,-3.81
2023-01-25T19:31:09.749Z,-3.90
2023-01-25T19:33:37.308Z,-3.96
2023-01-25T19:36:06.078Z,-3.99
2023-01-25T19:38:39.808Z,-4.00
2023-01-25T19:41:07.889Z,-4.00
2023-01-25T19:43:40.812Z,-4.03
2023-01-25T19:46:09.081Z,-4.03
2023-01-25T19:48:38.401Z,-4.04
2023-01-25T19:51:15.434Z,-4.06
2023-01-25T19:53:45.833Z,-4.10
2023-01-25T19:56:16.832Z,-4.12
2023-01-25T19:58:45.908Z,-4.13
2023-01-25T20:01:14.590Z,-4.12
2023-01-25T20:03:41.632Z,-4.11
2023-01-25T20:06:08.610Z,-4.12
2023-01-25T20:08:37.502Z,-4.11
2023-01-25T20:11:15.414Z,-4.09
2023-01-25T20:13:42.431Z,-4.08
2023-01-25T20:16:10.013Z,-4.06
2023-01-25T20:18:38.139Z,-4.04
2023-01-25T20:21:36.057Z,-4.00
2023-01-25T20:24:03.847Z,-3.97
2023-01-25T20:26:35.505Z,-3.98
2023-01-25T20:29:02.613Z,-4.01
2023-01-25T20:31:33.150Z,-4.02
2023-01-25T20:34:01.967Z,-4.03
2023-01-25T20:36:30.067Z,-4.02
2023-01-25T20:38:56.999Z,-4.00
2023-01-25T20:41:24.293Z,-3.97
2023-01-25T20:44:01.200Z,-3.95
2023-01-25T20:46:29.160Z,-3.94
2023-01-25T20:48:55.894Z,-3.91
2023-01-25T20:51:26.719Z,-3.90
2023-01-25T20:53:54.269Z,-3.91
2023-01-25T20:56:21.586Z,-3.91
2023-01-25T20:58:52.071Z,-3.92
2023-01-25T21:01:23.473Z,-3.91
2023-01-25T21:03:50.539Z,-3.90
2023-01-25T21:06:17.385Z,-3.88
2023-01-25T21:08:44.341Z,-3.88
2023-01-25T21:11:12.708Z,-3.92
2023-01-25T21:13:39.668Z,-3.95
2023-01-25T21:16:11.519Z,-3.95
2023-01-25T21:18:40.502Z,-3.91
2023-01-25T21:21:12.277Z,-3.89
2023-01-25T21:23:44.553Z,-3.89
2023-01-25T21:26:16.494Z,-3.92
2023-01-25T21:28:44.124Z,-3.97
2023-01-25T21:31:13.385Z,-4.02
2023-01-25T21:33:40.512Z,-4.06
2023-01-25T21:36:13.773Z,-4.10
2023-01-25T21:38:45.524Z,-4.11
2023-01-25T21:41:21.015Z,-4.11
2023-01-25T21:44:07.274Z,-4.10
2023-01-25T21:46:34.114Z,-4.10
2023-01-25T21:49:24.334Z,-4.11
2023-01-25T21:51:52.594Z,-4.14
2023-01-25T21:54:20.324Z,-4.16
2023-01-25T21:56:48.163Z,-4.17
2023-01-25T21:59:15.236Z,-4.17
